sensor_id;sensor_type;location;lat;lon;timestamp;temperature;humidity
4757;DHT22;2392;52.578;13.426;2022-11-27T00:02:21;8.60;99.90
4757;DHT22;2392;52.578;13.426;2022-11-27T00:04:50;8.60;99.90
4757;DHT22;2392;52.578;13.426;2022-11-27T00:07:17;8.60;99.90
4757;DHT22;2392;52.578;13.426;2022-11-27T00:09:44;8.70;99.90
4757;DHT22;2392;52.578;13.426;2022-11-27T00:12:11;8.70;99.90
4757;DHT22;2392;52.578;13.426;2022-11-27T00:14:38;8.70;99.90
4757;DHT22;2392;52.578;13.426;2022-11-27T00:17:05;8.80;99.90
4757;DHT22;2392;52.578;13.426;2022-11-27T00:19:32;8.80;99.90
4757;DHT22;2392;52.578;13.426;2022-11-27T00:22:00;8.80;99.90
4757;DHT22;2392;52.578;13.426;2022-11-27T00:24:27;8.80;99.90
4757;DHT22;2392;52.578;13.426;2022-11-27T00:26:54;8.80;99.90
4757;DHT22;2392;52.578;13.426;2022-11-27T00:29:21;8.80;99.90
4757;DHT22;2392;52.578;13.426;2022-11-27T00:31:48;8.80;99.90
4757;DHT22;2392;52.578;13.426;2022-11-27T00:34:15;8.80;99.90
4757;DHT22;2392;52.578;13.426;2022-11-27T00:36:42;8.80;99.90
4757;DHT22;2392;52.578;13.426;2022-11-27T00:39:10;8.80;99.90
4757;DHT22;2392;52.578;13.426;2022-11-27T00:41:37;8.80;99.90
4757;DHT22;2392;52.578;13.426;2022-11-27T00:44:05;8.80;99.90
4757;DHT22;2392;52.578;13.426;2022-11-27T00:46:33;8.80;99.90
4757;DHT22;2392;52.578;13.426;2022-11-27T00:49:02;8.90;99.90
4757;DHT22;2392;52.578;13.426;2022-11-27T00:51:29;8.90;99.90
4757;DHT22;2392;52.578;13.426;2022-11-27T00:53:57;9.00;99.90
4757;DHT22;2392;52.578;13.426;2022-11-27T00:56:27;9.00;99.90
4757;DHT22;2392;52.578;13.426;2022-11-27T00:58:57;9.00;99.90
4757;DHT22;2392;52.578;13.426;2022-11-27T01:01:26;9.00;99.90
4757;DHT22;2392;52.578;13.426;2022-11-27T01:03:54;9.00;99.90
4757;DHT22;2392;52.578;13.426;2022-11-27T01:06:21;9.00;99.90
4757;DHT22;2392;52.578;13.426;2022-11-27T01:08:49;9.00;99.90
4757;DHT22;2392;52.578;13.426;2022-11-27T01:11:17;9.00;99.90
4757;DHT22;2392;52.578;13.426;2022-11-27T01:13:46;8.90;99.90
4757;DHT22;2392;52.578;13.426;2022-11-27T01:16:16;9.00;99.90
4757;DHT22;2392;52.578;13.426;2022-11-27T01:18:44;9.00;99.90
4757;DHT22;2392;52.578;13.426;2022-11-27T01:21:12;9.00;99.90
4757;DHT22;2392;52.578;13.426;2022-11-27T01:23:39;9.00;99.90
4757;DHT22;2392;52.578;13.426;2022-11-27T01:26:08;9.00;99.90
4757;DHT22;2392;52.578;13.426;2022-11-27T01:28:36;9.00;99.90
4757;DHT22;2392;52.578;13.426;2022-11-27T01:31:06;9.00;99.90
4757;DHT22;2392;52.578;13.426;2022-11-27T01:33:34;8.90;99.90
4757;DHT22;2392;52.578;13.426;2022-11-27T01:36:03;9.00;99.90
4757;DHT22;2392;52.578;13.426;2022-11-27T01:38:32;8.90;99.90
4757;DHT22;2392;52.578;13.426;2022-11-27T01:41:01;8.90;99.90
4757;DHT22;2392;52.578;13.426;2022-11-27T01:43:36;8.90;99.90
4757;DHT22;2392;52.578;13.426;2022-11-27T01:49:08;8.90;99.90
4757;DHT22;2392;52.578;13.426;2022-11-27T01:51:44;8.90;99.90
4757;DHT22;2392;52.578;13.426;2022-11-27T01:54:13;8.90;99.90
4757;DHT22;2392;52.578;13.426;2022-11-27T01:56:43;8.80;99.90
4757;DHT22;2392;52.578;13.426;2022-11-27T01:59:11;8.80;99.90
4757;DHT22;2392;52.578;13.426;2022-11-27T02:01:40;8.70;99.90
4757;DHT22;2392;52.578;13.426;2022-11-27T02:04:07;8.70;99.90
4757;DHT22;2392;52.578;13.426;2022-11-27T02:06:34;8.70;99.90
4757;DHT22;2392;52.578;13.426;2022-11-27T02:09:01;8.60;99.90
4757;DHT22;2392;52.578;13.426;2022-11-27T02:11:33;8.60;99.90
4757;DHT22;2392;52.578;13.426;2022-11-27T02:14:07;8.60;99.90
4757;DHT22;2392;52.578;13.426;2022-11-27T02:16:42;8.60;99.90
4757;DHT22;2392;52.578;13.426;2022-11-27T02:19:24;8.60;99.90
4757;DHT22;2392;52.578;13.426;2022-11-27T02:21:58;8.50;99.90
4757;DHT22;2392;52.578;13.426;2022-11-27T02:24:41;8.50;99.90
4757;DHT22;2392;52.578;13.426;2022-11-27T02:27:26;8.50;99.90
4757;DHT22;2392;52.578;13.426;2022-11-27T02:30:00;8.40;99.90
4757;DHT22;2392;52.578;13.426;2022-11-27T02:32:34;8.40;99.90
4757;DHT22;2392;52.578;13.426;2022-11-27T02:35:05;8.40;99.90
4757;DHT22;2392;52.578;13.426;2022-11-27T02:37:37;8.30;99.90
4757;DHT22;2392;52.578;13.426;2022-11-27T02:40:10;8.30;99.90
4757;DHT22;2392;52.578;13.426;2022-11-27T02:42:41;8.30;99.90
4757;DHT22;2392;52.578;13.426;2022-11-27T02:45:13;8.30;99.90
4757;DHT22;2392;52.578;13.426;2022-11-27T02:47:42;8.30;99.90
4757;DHT22;2392;52.578;13.426;2022-11-27T02:50:12;8.30;99.90
4757;DHT22;2392;52.578;13.426;2022-11-27T02:52:41;8.30;99.90
4757;DHT22;2392;52.578;13.426;2022-11-27T02:55:13;8.30;99.90
4757;DHT22;2392;52.578;13.426;2022-11-27T02:57:42;8.30;99.90
4757;DHT22;2392;52.578;13.426;2022-11-27T03:00:13;8.30;99.90
4757;DHT22;2392;52.578;13.426;2022-11-27T03:02:42;8.30;99.90
4757;DHT22;2392;52.578;13.426;2022-11-27T03:05:15;8.30;99.90
4757;DHT22;2392;52.578;13.426;2022-11-27T03:07:47;8.40;99.90
4757;DHT22;2392;52.578;13.426;2022-11-27T03:10:18;8.30;99.90
4757;DHT22;2392;52.578;13.426;2022-11-27T03:12:46;8.30;99.90
4757;DHT22;2392;52.578;13.426;2022-11-27T03:15:16;8.40;99.90
4757;DHT22;2392;52.578;13.426;2022-11-27T03:17:51;8.30;99.90
4757;DHT22;2392;52.578;13.426;2022-11-27T03:20:21;8.30;99.90
4757;DHT22;2392;52.578;13.426;2022-11-27T03:22:51;8.30;99.90
4757;DHT22;2392;52.578;13.426;2022-11-27T03:25:19;8.30;99.90
4757;DHT22;2392;52.578;13.426;2022-11-27T03:27:49;8.30;99.90
4757;DHT22;2392;52.578;13.426;2022-11-27T03:30:19;8.30;99.90
4757;DHT22;2392;52.578;13.426;2022-11-27T03:32:46;8.30;99.90
4757;DHT22;2392;52.578;13.426;2022-11-27T03:35:16;8.30;99.90
4757;DHT22;2392;52.578;13.426;2022-11-27T03:37:44;8.30;99.90
4757;DHT22;2392;52.578;13.426;2022-11-27T03:40:12;8.20;99.90
4757;DHT22;2392;52.578;13.426;2022-11-27T03:42:52;8.20;99.90
4757;DHT22;2392;52.578;13.426;2022-11-27T03:45:31;8.20;99.90
4757;DHT22;2392;52.578;13.426;2022-11-27T03:48:14;8.20;99.90
4757;DHT22;2392;52.578;13.426;2022-11-27T03:50:51;8.30;99.90
4757;DHT22;2392;52.578;13.426;2022-11-27T03:53:25;8.30;99.90
4757;DHT22;2392;52.578;13.426;2022-11-27T03:56:00;8.30;99.90
4757;DHT22;2392;52.578;13.426;2022-11-27T03:58:31;8.30;99.90
4757;DHT22;2392;52.578;13.426;2022-11-27T04:01:02;8.30;99.90
4757;DHT22;2392;52.578;13.426;2022-11-27T04:03:30;8.30;99.90
4757;DHT22;2392;52.578;13.426;2022-11-27T04:05:57;8.30;99.90
4757;DHT22;2392;52.578;13.426;2022-11-27T04:08:24;8.30;99.90
4757;DHT22;2392;52.578;13.426;2022-11-27T04:10:52;8.30;99.90
4757;DHT22;2392;52.578;13.426;2022-11-27T04:13:19;8.20;99.90
4757;DHT22;2392;52.578;13.426;2022-11-27T04:15:46;8.20;99.90
4757;DHT22;2392;52.578;13.426;2022-11-27T04:18:14;8.10;99.90
4757;DHT22;2392;52.578;13.426;2022-11-27T04:20:41;8.10;99.90
4757;DHT22;2392;52.578;13.426;2022-11-27T04:23:08;8.10;99.90
4757;DHT22;2392;52.578;13.426;2022-11-27T04:25:35;8.00;99.90
4757;DHT22;2392;52.578;13.426;2022-11-27T04:28:03;8.10;99.90
4757;DHT22;2392;52.578;13.426;2022-11-27T04:30:30;8.10;99.90
4757;DHT22;2392;52.578;13.426;2022-11-27T04:32:57;8.10;99.90
4757;DHT22;2392;52.578;13.426;2022-11-27T04:35:25;8.10;99.90
4757;DHT22;2392;52.578;13.426;2022-11-27T04:37:54;8.10;99.90
4757;DHT22;2392;52.578;13.426;2022-11-27T04:40:22;8.00;99.90
4757;DHT22;2392;52.578;13.426;2022-11-27T04:42:49;8.00;99.90
4757;DHT22;2392;52.578;13.426;2022-11-27T04:45:16;7.90;99.90
4757;DHT22;2392;52.578;13.426;2022-11-27T04:47:43;7.90;99.90
4757;DHT22;2392;52.578;13.426;2022-11-27T04:50:10;7.80;99.90
4757;DHT22;2392;52.578;13.426;2022-11-27T04:52:39;7.80;99.90
4757;DHT22;2392;52.578;13.426;2022-11-27T04:55:07;7.80;99.90
4757;DHT22;2392;52.578;13.426;2022-11-27T04:57:34;7.70;99.90
4757;DHT22;2392;52.578;13.426;2022-11-27T05:00:03;7.70;99.90
4757;DHT22;2392;52.578;13.426;2022-11-27T05:02:31;7.70;99.90
4757;DHT22;2392;52.578;13.426;2022-11-27T05:04:58;7.60;99.90
4757;DHT22;2392;52.578;13.426;2022-11-27T05:07:25;7.60;99.90
4757;DHT22;2392;52.578;13.426;2022-11-27T05:09:53;7.50;99.90
4757;DHT22;2392;52.578;13.426;2022-11-27T05:12:20;7.50;99.90
4757;DHT22;2392;52.578;13.426;2022-11-27T05:14:47;7.40;99.90
4757;DHT22;2392;52.578;13.426;2022-11-27T05:17:14;7.40;99.90
4757;DHT22;2392;52.578;13.426;2022-11-27T05:19:41;7.30;99.90
4757;DHT22;2392;52.578;13.426;2022-11-27T05:22:08;7.20;99.90
4757;DHT22;2392;52.578;13.426;2022-11-27T05:24:35;7.20;99.90
4757;DHT22;2392;52.578;13.426;2022-11-27T05:27:03;7.10;99.90
4757;DHT22;2392;52.578;13.426;2022-11-27T05:29:30;7.00;99.90
4757;DHT22;2392;52.578;13.426;2022-11-27T05:31:57;7.00;99.90
4757;DHT22;2392;52.578;13.426;2022-11-27T05:34:24;6.90;99.90
4757;DHT22;2392;52.578;13.426;2022-11-27T05:36:51;6.90;99.90
4757;DHT22;2392;52.578;13.426;2022-11-27T05:39:18;6.90;99.90
4757;DHT22;2392;52.578;13.426;2022-11-27T05:41:46;6.80;99.90
4757;DHT22;2392;52.578;13.426;2022-11-27T05:44:15;6.80;99.90
4757;DHT22;2392;52.578;13.426;2022-11-27T05:46:42;6.70;99.90
4757;DHT22;2392;52.578;13.426;2022-11-27T05:49:11;6.70;99.90
4757;DHT22;2392;52.578;13.426;2022-11-27T05:51:38;6.60;99.90
4757;DHT22;2392;52.578;13.426;2022-11-27T05:54:05;6.60;99.90
4757;DHT22;2392;52.578;13.426;2022-11-27T05:56:32;6.60;99.90
4757;DHT22;2392;52.578;13.426;2022-11-27T05:58:59;6.60;99.90
4757;DHT22;2392;52.578;13.426;2022-11-27T06:01:28;6.50;99.90
4757;DHT22;2392;52.578;13.426;2022-11-27T06:03:54;6.50;99.90
4757;DHT22;2392;52.578;13.426;2022-11-27T06:06:21;6.50;99.90
4757;DHT22;2392;52.578;13.426;2022-11-27T06:08:48;6.60;99.90
4757;DHT22;2392;52.578;13.426;2022-11-27T06:11:17;6.50;99.90
4757;DHT22;2392;52.578;13.426;2022-11-27T06:13:45;6.50;99.90
4757;DHT22;2392;52.578;13.426;2022-11-27T06:16:16;6.50;99.90
4757;DHT22;2392;52.578;13.426;2022-11-27T06:18:47;6.50;99.90
4757;DHT22;2392;52.578;13.426;2022-11-27T06:21:14;6.50;99.90
4757;DHT22;2392;52.578;13.426;2022-11-27T06:23:42;6.50;99.90
4757;DHT22;2392;52.578;13.426;2022-11-27T06:26:11;6.40;99.90
4757;DHT22;2392;52.578;13.426;2022-11-27T06:28:38;6.40;99.90
4757;DHT22;2392;52.578;13.426;2022-11-27T06:31:07;6.40;99.90
4757;DHT22;2392;52.578;13.426;2022-11-27T06:33:34;6.40;99.90
4757;DHT22;2392;52.578;13.426;2022-11-27T06:36:04;6.30;99.90
4757;DHT22;2392;52.578;13.426;2022-11-27T06:38:32;6.30;99.90
4757;DHT22;2392;52.578;13.426;2022-11-27T06:41:04;6.30;99.90
4757;DHT22;2392;52.578;13.426;2022-11-27T06:43:31;6.30;99.90
4757;DHT22;2392;52.578;13.426;2022-11-27T06:45:59;6.30;99.90
4757;DHT22;2392;52.578;13.426;2022-11-27T06:48:26;6.30;99.90
4757;DHT22;2392;52.578;13.426;2022-11-27T06:50:53;6.20;99.90
4757;DHT22;2392;52.578;13.426;2022-11-27T06:53:25;6.20;99.90
4757;DHT22;2392;52.578;13.426;2022-11-27T06:55:52;6.20;99.90
4757;DHT22;2392;52.578;13.426;2022-11-27T06:58:19;6.20;99.90
4757;DHT22;2392;52.578;13.426;2022-11-27T07:00:46;6.10;99.90
4757;DHT22;2392;52.578;13.426;2022-11-27T07:03:13;6.10;99.90
4757;DHT22;2392;52.578;13.426;2022-11-27T07:05:40;6.10;99.90
4757;DHT22;2392;52.578;13.426;2022-11-27T07:08:07;6.00;99.90
4757;DHT22;2392;52.578;13.426;2022-11-27T07:10:36;6.00;99.90
4757;DHT22;2392;52.578;13.426;2022-11-27T07:13:03;6.00;99.90
4757;DHT22;2392;52.578;13.426;2022-11-27T07:15:31;5.90;99.90
4757;DHT22;2392;52.578;13.426;2022-11-27T07:17:58;5.90;99.90
4757;DHT22;2392;52.578;13.426;2022-11-27T07:20:25;5.90;99.90
4757;DHT22;2392;52.578;13.426;2022-11-27T07:22:53;5.90;99.90
4757;DHT22;2392;52.578;13.426;2022-11-27T07:25:20;5.90;99.90
4757;DHT22;2392;52.578;13.426;2022-11-27T07:27:48;5.90;99.90
4757;DHT22;2392;52.578;13.426;2022-11-27T07:30:15;6.00;99.90
4757;DHT22;2392;52.578;13.426;2022-11-27T07:32:42;6.00;99.90
4757;DHT22;2392;52.578;13.426;2022-11-27T07:35:12;6.00;99.90
4757;DHT22;2392;52.578;13.426;2022-11-27T07:37:39;6.00;99.90
4757;DHT22;2392;52.578;13.426;2022-11-27T07:40:06;6.00;99.90
4757;DHT22;2392;52.578;13.426;2022-11-27T07:42:36;6.10;99.90
4757;DHT22;2392;52.578;13.426;2022-11-27T07:45:05;6.10;99.90
4757;DHT22;2392;52.578;13.426;2022-11-27T07:47:33;6.10;99.90
4757;DHT22;2392;52.578;13.426;2022-11-27T07:50:00;6.10;99.90
4757;DHT22;2392;52.578;13.426;2022-11-27T07:52:27;6.10;99.90
4757;DHT22;2392;52.578;13.426;2022-11-27T07:54:54;6.10;99.90
4757;DHT22;2392;52.578;13.426;2022-11-27T07:57:21;6.10;99.90
4757;DHT22;2392;52.578;13.426;2022-11-27T07:59:48;6.20;99.90
4757;DHT22;2392;52.578;13.426;2022-11-27T08:02:16;6.20;99.90
4757;DHT22;2392;52.578;13.426;2022-11-27T08:04:43;6.20;99.90
4757;DHT22;2392;52.578;13.426;2022-11-27T08:07:10;6.20;99.90
4757;DHT22;2392;52.578;13.426;2022-11-27T08:09:40;6.10;99.90
4757;DHT22;2392;52.578;13.426;2022-11-27T08:12:07;6.10;99.90
4757;DHT22;2392;52.578;13.426;2022-11-27T08:14:34;6.10;99.90
4757;DHT22;2392;52.578;13.426;2022-11-27T08:17:01;6.10;99.90
4757;DHT22;2392;52.578;13.426;2022-11-27T08:19:29;6.10;99.90
4757;DHT22;2392;52.578;13.426;2022-11-27T08:21:56;6.10;99.90
4757;DHT22;2392;52.578;13.426;2022-11-27T08:24:23;6.20;99.90
4757;DHT22;2392;52.578;13.426;2022-11-27T08:26:50;6.20;99.90
4757;DHT22;2392;52.578;13.426;2022-11-27T08:29:19;6.20;99.90
4757;DHT22;2392;52.578;13.426;2022-11-27T08:31:46;6.20;99.90
4757;DHT22;2392;52.578;13.426;2022-11-27T08:34:13;6.10;99.90
4757;DHT22;2392;52.578;13.426;2022-11-27T08:36:41;6.10;99.90
4757;DHT22;2392;52.578;13.426;2022-11-27T08:39:11;6.10;99.90
4757;DHT22;2392;52.578;13.426;2022-11-27T08:41:38;6.10;99.90
4757;DHT22;2392;52.578;13.426;2022-11-27T08:44:08;6.10;99.90
4757;DHT22;2392;52.578;13.426;2022-11-27T08:46:35;6.10;99.90
4757;DHT22;2392;52.578;13.426;2022-11-27T08:49:04;6.20;99.90
4757;DHT22;2392;52.578;13.426;2022-11-27T08:51:31;6.20;99.90
4757;DHT22;2392;52.578;13.426;2022-11-27T08:54:02;6.20;99.90
4757;DHT22;2392;52.578;13.426;2022-11-27T08:56:29;6.20;99.90
4757;DHT22;2392;52.578;13.426;2022-11-27T08:58:56;6.20;99.90
4757;DHT22;2392;52.578;13.426;2022-11-27T09:01:25;6.20;99.90
4757;DHT22;2392;52.578;13.426;2022-11-27T09:03:53;6.20;99.90
4757;DHT22;2392;52.578;13.426;2022-11-27T09:06:21;6.30;99.90
4757;DHT22;2392;52.578;13.426;2022-11-27T09:08:49;6.30;99.90
4757;DHT22;2392;52.578;13.426;2022-11-27T09:11:18;6.40;99.90
4757;DHT22;2392;52.578;13.426;2022-11-27T09:13:48;6.50;99.90
4757;DHT22;2392;52.578;13.426;2022-11-27T09:16:24;6.60;99.90
4757;DHT22;2392;52.578;13.426;2022-11-27T09:18:51;6.70;99.90
4757;DHT22;2392;52.578;13.426;2022-11-27T09:21:21;6.70;99.90
4757;DHT22;2392;52.578;13.426;2022-11-27T09:23:51;6.70;99.90
4757;DHT22;2392;52.578;13.426;2022-11-27T09:26:23;6.80;99.90
4757;DHT22;2392;52.578;13.426;2022-11-27T09:28:54;7.00;99.90
4757;DHT22;2392;52.578;13.426;2022-11-27T09:31:21;7.10;99.90
4757;DHT22;2392;52.578;13.426;2022-11-27T09:33:49;7.10;99.90
4757;DHT22;2392;52.578;13.426;2022-11-27T09:36:18;7.20;99.90
4757;DHT22;2392;52.578;13.426;2022-11-27T09:38:45;7.30;99.90
4757;DHT22;2392;52.578;13.426;2022-11-27T09:41:42;7.30;99.90
4757;DHT22;2392;52.578;13.426;2022-11-27T09:44:21;7.40;99.90
4757;DHT22;2392;52.578;13.426;2022-11-27T09:46:49;7.50;99.90
4757;DHT22;2392;52.578;13.426;2022-11-27T09:49:20;7.60;99.90
4757;DHT22;2392;52.578;13.426;2022-11-27T09:51:52;7.70;99.90
4757;DHT22;2392;52.578;13.426;2022-11-27T09:54:24;7.90;99.90
4757;DHT22;2392;52.578;13.426;2022-11-27T09:56:55;8.10;99.90
4757;DHT22;2392;52.578;13.426;2022-11-27T09:59:28;8.20;99.90
4757;DHT22;2392;52.578;13.426;2022-11-27T10:01:58;8.40;99.90
4757;DHT22;2392;52.578;13.426;2022-11-27T10:04:27;8.50;99.90
4757;DHT22;2392;52.578;13.426;2022-11-27T10:07:07;8.80;99.90
4757;DHT22;2392;52.578;13.426;2022-11-27T10:09:48;9.10;99.90
4757;DHT22;2392;52.578;13.426;2022-11-27T10:12:25;9.60;99.90
4757;DHT22;2392;52.578;13.426;2022-11-27T10:15:04;10.30;99.90
4757;DHT22;2392;52.578;13.426;2022-11-27T10:17:36;10.80;99.90
4757;DHT22;2392;52.578;13.426;2022-11-27T10:20:15;11.30;99.90
4757;DHT22;2392;52.578;13.426;2022-11-27T10:22:51;11.60;99.90
4757;DHT22;2392;52.578;13.426;2022-11-27T10:25:24;12.00;99.90
4757;DHT22;2392;52.578;13.426;2022-11-27T10:28:05;12.40;99.90
4757;DHT22;2392;52.578;13.426;2022-11-27T10:30:38;12.70;99.90
4757;DHT22;2392;52.578;13.426;2022-11-27T10:33:14;13.00;99.90
4757;DHT22;2392;52.578;13.426;2022-11-27T10:35:46;13.00;99.90
4757;DHT22;2392;52.578;13.426;2022-11-27T10:38:16;13.40;99.90
4757;DHT22;2392;52.578;13.426;2022-11-27T10:40:50;13.60;99.90
4757;DHT22;2392;52.578;13.426;2022-11-27T10:43:21;13.60;99.90
4757;DHT22;2392;52.578;13.426;2022-11-27T10:45:51;14.00;99.90
4757;DHT22;2392;52.578;13.426;2022-11-27T10:48:19;14.30;99.90
4757;DHT22;2392;52.578;13.426;2022-11-27T10:50:46;14.70;99.90
4757;DHT22;2392;52.578;13.426;2022-11-27T10:53:20;14.80;99.90
4757;DHT22;2392;52.578;13.426;2022-11-27T10:56:12;15.00;99.90
4757;DHT22;2392;52.578;13.426;2022-11-27T10:58:54;15.40;99.90
4757;DHT22;2392;52.578;13.426;2022-11-27T11:01:24;15.50;99.90
4757;DHT22;2392;52.578;13.426;2022-11-27T11:04:04;15.90;99.90
4757;DHT22;2392;52.578;13.426;2022-11-27T11:06:33;15.80;99.90
4757;DHT22;2392;52.578;13.426;2022-11-27T11:09:06;15.80;99.90
4757;DHT22;2392;52.578;13.426;2022-11-27T11:11:38;15.70;99.90
4757;DHT22;2392;52.578;13.426;2022-11-27T11:14:16;15.70;99.90
4757;DHT22;2392;52.578;13.426;2022-11-27T11:16:44;16.00;99.90
4757;DHT22;2392;52.578;13.426;2022-11-27T11:19:21;16.00;99.90
4757;DHT22;2392;52.578;13.426;2022-11-27T11:21:52;16.00;99.90
4757;DHT22;2392;52.578;13.426;2022-11-27T11:24:24;15.90;99.90
4757;DHT22;2392;52.578;13.426;2022-11-27T11:26:56;15.70;99.90
4757;DHT22;2392;52.578;13.426;2022-11-27T11:29:33;15.30;99.90
4757;DHT22;2392;52.578;13.426;2022-11-27T11:32:08;14.70;99.90
4757;DHT22;2392;52.578;13.426;2022-11-27T11:34:44;14.10;99.90
4757;DHT22;2392;52.578;13.426;2022-11-27T11:37:21;13.60;99.90
4757;DHT22;2392;52.578;13.426;2022-11-27T11:39:54;13.30;99.90
4757;DHT22;2392;52.578;13.426;2022-11-27T11:42:24;13.20;99.90
4757;DHT22;2392;52.578;13.426;2022-11-27T11:45:00;13.20;99.90
4757;DHT22;2392;52.578;13.426;2022-11-27T11:47:28;13.30;99.90
4757;DHT22;2392;52.578;13.426;2022-11-27T11:49:55;13.70;99.90
4757;DHT22;2392;52.578;13.426;2022-11-27T11:52:40;13.90;99.90
4757;DHT22;2392;52.578;13.426;2022-11-27T11:55:16;14.20;99.90
4757;DHT22;2392;52.578;13.426;2022-11-27T11:58:01;14.30;99.90
4757;DHT22;2392;52.578;13.426;2022-11-27T12:00:41;14.10;99.90
4757;DHT22;2392;52.578;13.426;2022-11-27T12:03:22;14.10;99.90
4757;DHT22;2392;52.578;13.426;2022-11-27T12:06:03;13.80;99.90
4757;DHT22;2392;52.578;13.426;2022-11-27T12:08:44;13.40;99.90
4757;DHT22;2392;52.578;13.426;2022-11-27T12:11:18;13.10;99.90
4757;DHT22;2392;52.578;13.426;2022-11-27T12:13:59;12.60;99.90
4757;DHT22;2392;52.578;13.426;2022-11-27T12:16:38;12.20;99.90
4757;DHT22;2392;52.578;13.426;2022-11-27T12:19:24;11.80;99.90
4757;DHT22;2392;52.578;13.426;2022-11-27T12:22:00;11.40;99.90
4757;DHT22;2392;52.578;13.426;2022-11-27T12:24:38;11.10;99.90
4757;DHT22;2392;52.578;13.426;2022-11-27T12:27:15;10.90;99.90
4757;DHT22;2392;52.578;13.426;2022-11-27T12:30:08;10.70;99.90
4757;DHT22;2392;52.578;13.426;2022-11-27T12:32:57;10.50;99.90
4757;DHT22;2392;52.578;13.426;2022-11-27T12:35:31;10.30;99.90
4757;DHT22;2392;52.578;13.426;2022-11-27T12:38:09;10.20;99.90
4757;DHT22;2392;52.578;13.426;2022-11-27T12:40:49;10.00;99.90
4757;DHT22;2392;52.578;13.426;2022-11-27T12:43:23;10.00;99.90
4757;DHT22;2392;52.578;13.426;2022-11-27T12:45:54;9.90;99.90
4757;DHT22;2392;52.578;13.426;2022-11-27T12:48:28;9.90;99.90
4757;DHT22;2392;52.578;13.426;2022-11-27T12:50:59;9.80;99.90
4757;DHT22;2392;52.578;13.426;2022-11-27T12:53:30;9.70;99.90
4757;DHT22;2392;52.578;13.426;2022-11-27T12:56:08;9.70;99.90
4757;DHT22;2392;52.578;13.426;2022-11-27T12:58:38;9.60;99.90
4757;DHT22;2392;52.578;13.426;2022-11-27T13:01:10;9.50;99.90
4757;DHT22;2392;52.578;13.426;2022-11-27T13:03:45;9.50;99.90
4757;DHT22;2392;52.578;13.426;2022-11-27T13:06:17;9.40;99.90
4757;DHT22;2392;52.578;13.426;2022-11-27T13:08:49;9.30;99.90
4757;DHT22;2392;52.578;13.426;2022-11-27T13:11:21;9.20;99.90
4757;DHT22;2392;52.578;13.426;2022-11-27T13:13:51;9.20;99.90
4757;DHT22;2392;52.578;13.426;2022-11-27T13:16:22;9.30;99.90
4757;DHT22;2392;52.578;13.426;2022-11-27T13:18:56;9.30;99.90
4757;DHT22;2392;52.578;13.426;2022-11-27T13:21:27;9.30;99.90
4757;DHT22;2392;52.578;13.426;2022-11-27T13:23:55;9.20;99.90
4757;DHT22;2392;52.578;13.426;2022-11-27T13:26:29;9.20;99.90
4757;DHT22;2392;52.578;13.426;2022-11-27T13:28:59;9.10;99.90
4757;DHT22;2392;52.578;13.426;2022-11-27T13:31:30;9.00;99.90
4757;DHT22;2392;52.578;13.426;2022-11-27T13:34:03;9.00;99.90
4757;DHT22;2392;52.578;13.426;2022-11-27T13:36:35;8.90;99.90
4757;DHT22;2392;52.578;13.426;2022-11-27T13:39:04;8.90;99.90
4757;DHT22;2392;52.578;13.426;2022-11-27T13:41:38;8.90;99.90
4757;DHT22;2392;52.578;13.426;2022-11-27T13:44:20;8.80;99.90
4757;DHT22;2392;52.578;13.426;2022-11-27T13:46:50;8.90;99.90
4757;DHT22;2392;52.578;13.426;2022-11-27T13:49:24;8.90;99.90
4757;DHT22;2392;52.578;13.426;2022-11-27T13:52:03;8.90;99.90
4757;DHT22;2392;52.578;13.426;2022-11-27T13:54:31;8.90;99.90
4757;DHT22;2392;52.578;13.426;2022-11-27T13:57:11;8.90;99.90
4757;DHT22;2392;52.578;13.426;2022-11-27T13:59:39;8.90;99.90
4757;DHT22;2392;52.578;13.426;2022-11-27T14:02:07;8.90;99.90
4757;DHT22;2392;52.578;13.426;2022-11-27T14:04:47;8.90;99.90
4757;DHT22;2392;52.578;13.426;2022-11-27T14:07:15;8.90;99.90
4757;DHT22;2392;52.578;13.426;2022-11-27T14:09:46;8.90;99.90
4757;DHT22;2392;52.578;13.426;2022-11-27T14:12:20;8.90;99.90
4757;DHT22;2392;52.578;13.426;2022-11-27T14:15:00;8.90;99.90
4757;DHT22;2392;52.578;13.426;2022-11-27T14:17:37;8.90;99.90
4757;DHT22;2392;52.578;13.426;2022-11-27T14:20:23;8.90;99.90
4757;DHT22;2392;52.578;13.426;2022-11-27T14:22:54;8.90;99.90
4757;DHT22;2392;52.578;13.426;2022-11-27T14:25:24;8.90;99.90
4757;DHT22;2392;52.578;13.426;2022-11-27T14:27:58;8.80;99.90
4757;DHT22;2392;52.578;13.426;2022-11-27T14:30:31;8.80;99.90
4757;DHT22;2392;52.578;13.426;2022-11-27T14:33:01;8.80;99.90
4757;DHT22;2392;52.578;13.426;2022-11-27T14:35:29;8.80;99.90
4757;DHT22;2392;52.578;13.426;2022-11-27T14:38:08;8.70;99.90
4757;DHT22;2392;52.578;13.426;2022-11-27T14:40:36;8.70;99.90
4757;DHT22;2392;52.578;13.426;2022-11-27T14:43:12;8.60;99.90
4757;DHT22;2392;52.578;13.426;2022-11-27T14:45:44;8.60;99.90
4757;DHT22;2392;52.578;13.426;2022-11-27T14:48:18;8.50;99.90
4757;DHT22;2392;52.578;13.426;2022-11-27T14:50:51;8.50;99.90
4757;DHT22;2392;52.578;13.426;2022-11-27T14:53:21;8.40;99.90
4757;DHT22;2392;52.578;13.426;2022-11-27T14:55:51;8.40;99.90
4757;DHT22;2392;52.578;13.426;2022-11-27T14:58:25;8.40;99.90
4757;DHT22;2392;52.578;13.426;2022-11-27T15:00:56;8.30;99.90
4757;DHT22;2392;52.578;13.426;2022-11-27T15:03:24;8.30;99.90
4757;DHT22;2392;52.578;13.426;2022-11-27T15:05:57;8.30;99.90
4757;DHT22;2392;52.578;13.426;2022-11-27T15:08:28;8.20;99.90
4757;DHT22;2392;52.578;13.426;2022-11-27T15:10:59;8.10;99.90
4757;DHT22;2392;52.578;13.426;2022-11-27T15:13:29;8.10;99.90
4757;DHT22;2392;52.578;13.426;2022-11-27T15:16:01;8.10;99.90
4757;DHT22;2392;52.578;13.426;2022-11-27T15:18:34;8.00;99.90
4757;DHT22;2392;52.578;13.426;2022-11-27T15:21:09;8.00;99.90
4757;DHT22;2392;52.578;13.426;2022-11-27T15:23:44;7.90;99.90
4757;DHT22;2392;52.578;13.426;2022-11-27T15:26:13;7.90;99.90
4757;DHT22;2392;52.578;13.426;2022-11-27T15:28:42;7.90;99.90
4757;DHT22;2392;52.578;13.426;2022-11-27T15:31:23;7.90;99.90
4757;DHT22;2392;52.578;13.426;2022-11-27T15:33:55;7.80;99.90
4757;DHT22;2392;52.578;13.426;2022-11-27T15:36:23;7.80;99.90
4757;DHT22;2392;52.578;13.426;2022-11-27T15:38:51;7.70;99.90
4757;DHT22;2392;52.578;13.426;2022-11-27T15:41:20;7.70;99.90
4757;DHT22;2392;52.578;13.426;2022-11-27T15:43:48;7.70;99.90
4757;DHT22;2392;52.578;13.426;2022-11-27T15:46:19;7.70;99.90
4757;DHT22;2392;52.578;13.426;2022-11-27T15:48:48;7.70;99.90
4757;DHT22;2392;52.578;13.426;2022-11-27T15:51:15;7.60;99.90
4757;DHT22;2392;52.578;13.426;2022-11-27T15:53:43;7.60;99.90
4757;DHT22;2392;52.578;13.426;2022-11-27T15:56:12;7.60;99.90
4757;DHT22;2392;52.578;13.426;2022-11-27T15:58:39;7.60;99.90
4757;DHT22;2392;52.578;13.426;2022-11-27T16:01:06;7.60;99.90
4757;DHT22;2392;52.578;13.426;2022-11-27T16:03:33;7.50;99.90
4757;DHT22;2392;52.578;13.426;2022-11-27T16:06:02;7.50;99.90
4757;DHT22;2392;52.578;13.426;2022-11-27T16:08:30;7.50;99.90
4757;DHT22;2392;52.578;13.426;2022-11-27T16:11:01;7.50;99.90
4757;DHT22;2392;52.578;13.426;2022-11-27T16:13:28;7.40;99.90
4757;DHT22;2392;52.578;13.426;2022-11-27T16:16:00;7.40;99.90
4757;DHT22;2392;52.578;13.426;2022-11-27T16:18:27;7.40;99.90
4757;DHT22;2392;52.578;13.426;2022-11-27T16:20:54;7.40;99.90
4757;DHT22;2392;52.578;13.426;2022-11-27T16:23:21;7.40;99.90
4757;DHT22;2392;52.578;13.426;2022-11-27T16:25:48;7.40;99.90